sensor_id;sensor_type;location;lat;lon;timestamp;P1;durP1;ratioP1;P2;durP2;ratioP2
47894;SDS011;33653;52.302;8.134;2023-09-07T00:00:21;7.82;;;2.00;;
47894;SDS011;33653;52.302;8.134;2023-09-07T00:02:49;2.63;;;1.80;;
47894;SDS011;33653;52.302;8.134;2023-09-07T00:05:17;2.10;;;1.55;;
47894;SDS011;33653;52.302;8.134;2023-09-07T00:07:46;2.00;;;1.63;;
47894;SDS011;33653;52.302;8.134;2023-09-07T00:10:15;2.03;;;1.77;;
47894;SDS011;33653;52.302;8.134;2023-09-07T00:12:45;3.17;;;1.73;;
47894;SDS011;33653;52.302;8.134;2023-09-07T00:15:13;5.03;;;2.17;;
47894;SDS011;33653;52.302;8.134;2023-09-07T00:20:49;2.13;;;1.80;;
47894;SDS011;33653;52.302;8.134;2023-09-07T00:23:17;2.08;;;1.60;;
47894;SDS011;33653;52.302;8.134;2023-09-07T00:25:47;2.22;;;1.70;;
47894;SDS011;33653;52.302;8.134;2023-09-07T00:28:15;3.42;;;1.90;;
47894;SDS011;33653;52.302;8.134;2023-09-07T00:30:48;2.80;;;2.10;;
47894;SDS011;33653;52.302;8.134;2023-09-07T00:33:16;1.60;;;1.50;;
47894;SDS011;33653;52.302;8.134;2023-09-07T00:35:44;2.45;;;1.80;;
47894;SDS011;33653;52.302;8.134;2023-09-07T00:38:12;2.08;;;1.60;;
47894;SDS011;33653;52.302;8.134;2023-09-07T00:40:44;2.70;;;2.00;;
47894;SDS011;33653;52.302;8.134;2023-09-07T00:43:12;2.45;;;1.77;;
47894;SDS011;33653;52.302;8.134;2023-09-07T00:45:41;3.03;;;1.90;;
47894;SDS011;33653;52.302;8.134;2023-09-07T00:48:11;3.25;;;1.55;;
47894;SDS011;33653;52.302;8.134;2023-09-07T00:50:42;2.78;;;2.00;;
47894;SDS011;33653;52.302;8.134;2023-09-07T00:53:10;2.22;;;1.73;;
47894;SDS011;33653;52.302;8.134;2023-09-07T00:55:39;2.30;;;1.90;;
47894;SDS011;33653;52.302;8.134;2023-09-07T00:58:07;2.75;;;1.50;;
47894;SDS011;33653;52.302;8.134;2023-09-07T01:03:31;4.53;;;1.95;;
47894;SDS011;33653;52.302;8.134;2023-09-07T01:06:03;2.65;;;1.60;;
47894;SDS011;33653;52.302;8.134;2023-09-07T01:08:45;2.17;;;1.67;;
47894;SDS011;33653;52.302;8.134;2023-09-07T01:11:19;1.65;;;1.40;;
47894;SDS011;33653;52.302;8.134;2023-09-07T01:17:48;1.63;;;1.40;;
47894;SDS011;33653;52.302;8.134;2023-09-07T01:20:17;4.05;;;2.00;;
47894;SDS011;33653;52.302;8.134;2023-09-07T01:22:46;2.00;;;1.80;;
47894;SDS011;33653;52.302;8.134;2023-09-07T01:25:15;2.63;;;1.63;;
47894;SDS011;33653;52.302;8.134;2023-09-07T01:27:43;4.50;;;1.88;;
47894;SDS011;33653;52.302;8.134;2023-09-07T01:30:12;2.00;;;1.65;;
47894;SDS011;33653;52.302;8.134;2023-09-07T01:32:41;2.58;;;1.90;;
47894;SDS011;33653;52.302;8.134;2023-09-07T01:35:10;2.08;;;1.88;;
47894;SDS011;33653;52.302;8.134;2023-09-07T01:37:40;1.87;;;1.40;;
47894;SDS011;33653;52.302;8.134;2023-09-07T01:40:08;2.75;;;1.60;;
47894;SDS011;33653;52.302;8.134;2023-09-07T01:42:45;2.03;;;1.45;;
47894;SDS011;33653;52.302;8.134;2023-09-07T01:45:13;2.05;;;1.70;;
47894;SDS011;33653;52.302;8.134;2023-09-07T01:47:41;1.95;;;1.70;;
47894;SDS011;33653;52.302;8.134;2023-09-07T01:50:10;2.22;;;1.75;;
47894;SDS011;33653;52.302;8.134;2023-09-07T01:52:38;3.03;;;1.70;;
47894;SDS011;33653;52.302;8.134;2023-09-07T01:58:00;1.85;;;1.65;;
47894;SDS011;33653;52.302;8.134;2023-09-07T02:00:28;2.25;;;1.92;;
47894;SDS011;33653;52.302;8.134;2023-09-07T02:02:57;2.78;;;1.75;;
47894;SDS011;33653;52.302;8.134;2023-09-07T02:05:25;4.13;;;1.90;;
47894;SDS011;33653;52.302;8.134;2023-09-07T02:07:55;8.05;;;2.13;;
47894;SDS011;33653;52.302;8.134;2023-09-07T02:10:23;4.22;;;2.00;;
47894;SDS011;33653;52.302;8.134;2023-09-07T02:12:52;4.93;;;1.58;;
47894;SDS011;33653;52.302;8.134;2023-09-07T02:18:14;2.28;;;1.73;;
47894;SDS011;33653;52.302;8.134;2023-09-07T02:20:42;2.97;;;1.98;;
47894;SDS011;33653;52.302;8.134;2023-09-07T02:23:11;1.65;;;1.55;;
47894;SDS011;33653;52.302;8.134;2023-09-07T02:25:45;4.75;;;2.20;;
47894;SDS011;33653;52.302;8.134;2023-09-07T02:28:14;4.20;;;1.95;;
47894;SDS011;33653;52.302;8.134;2023-09-07T02:30:42;2.15;;;1.88;;
47894;SDS011;33653;52.302;8.134;2023-09-07T02:33:10;3.95;;;2.10;;
47894;SDS011;33653;52.302;8.134;2023-09-07T02:35:39;2.25;;;1.88;;
47894;SDS011;33653;52.302;8.134;2023-09-07T02:38:07;2.47;;;1.60;;
47894;SDS011;33653;52.302;8.134;2023-09-07T02:43:29;3.97;;;1.90;;
47894;SDS011;33653;52.302;8.134;2023-09-07T02:45:58;2.60;;;1.90;;
47894;SDS011;33653;52.302;8.134;2023-09-07T02:48:27;2.20;;;1.75;;
47894;SDS011;33653;52.302;8.134;2023-09-07T02:50:56;3.65;;;1.80;;
47894;SDS011;33653;52.302;8.134;2023-09-07T02:53:26;2.05;;;1.70;;
47894;SDS011;33653;52.302;8.134;2023-09-07T02:55:54;3.20;;;2.33;;
47894;SDS011;33653;52.302;8.134;2023-09-07T02:58:23;2.85;;;2.20;;
47894;SDS011;33653;52.302;8.134;2023-09-07T03:00:53;2.65;;;2.22;;
47894;SDS011;33653;52.302;8.134;2023-09-07T03:03:24;2.65;;;1.90;;
47894;SDS011;33653;52.302;8.134;2023-09-07T03:05:53;1.75;;;1.63;;
47894;SDS011;33653;52.302;8.134;2023-09-07T03:08:22;2.53;;;1.80;;
47894;SDS011;33653;52.302;8.134;2023-09-07T03:10:51;2.58;;;2.03;;
47894;SDS011;33653;52.302;8.134;2023-09-07T03:13:20;3.38;;;2.20;;
47894;SDS011;33653;52.302;8.134;2023-09-07T03:15:52;3.00;;;2.13;;
47894;SDS011;33653;52.302;8.134;2023-09-07T03:18:21;2.97;;;2.28;;
47894;SDS011;33653;52.302;8.134;2023-09-07T03:20:50;3.13;;;2.40;;
47894;SDS011;33653;52.302;8.134;2023-09-07T03:25:49;2.80;;;2.00;;
47894;SDS011;33653;52.302;8.134;2023-09-07T03:28:18;2.88;;;2.10;;
47894;SDS011;33653;52.302;8.134;2023-09-07T03:30:46;3.22;;;2.30;;
47894;SDS011;33653;52.302;8.134;2023-09-07T03:33:15;4.13;;;2.33;;
47894;SDS011;33653;52.302;8.134;2023-09-07T03:38:37;3.05;;;2.10;;
47894;SDS011;33653;52.302;8.134;2023-09-07T03:41:06;2.78;;;2.25;;
47894;SDS011;33653;52.302;8.134;2023-09-07T03:43:35;3.45;;;2.35;;
47894;SDS011;33653;52.302;8.134;2023-09-07T03:46:03;3.72;;;2.35;;
47894;SDS011;33653;52.302;8.134;2023-09-07T03:48:32;2.53;;;1.98;;
47894;SDS011;33653;52.302;8.134;2023-09-07T03:51:07;3.15;;;2.08;;
47894;SDS011;33653;52.302;8.134;2023-09-07T03:56:27;3.88;;;2.50;;
47894;SDS011;33653;52.302;8.134;2023-09-07T03:58:55;3.50;;;2.78;;
47894;SDS011;33653;52.302;8.134;2023-09-07T04:01:24;3.63;;;2.40;;
47894;SDS011;33653;52.302;8.134;2023-09-07T04:03:53;3.50;;;2.20;;
47894;SDS011;33653;52.302;8.134;2023-09-07T04:06:21;3.22;;;2.47;;
47894;SDS011;33653;52.302;8.134;2023-09-07T04:08:52;2.70;;;2.00;;
47894;SDS011;33653;52.302;8.134;2023-09-07T04:11:20;3.53;;;2.45;;
47894;SDS011;33653;52.302;8.134;2023-09-07T04:13:50;2.95;;;2.53;;
47894;SDS011;33653;52.302;8.134;2023-09-07T04:16:18;3.88;;;2.63;;
47894;SDS011;33653;52.302;8.134;2023-09-07T04:18:47;4.25;;;2.33;;
47894;SDS011;33653;52.302;8.134;2023-09-07T04:21:16;3.10;;;2.30;;
47894;SDS011;33653;52.302;8.134;2023-09-07T04:23:45;3.33;;;2.10;;
47894;SDS011;33653;52.302;8.134;2023-09-07T04:26:13;7.22;;;2.08;;
47894;SDS011;33653;52.302;8.134;2023-09-07T04:31:36;4.47;;;2.25;;
47894;SDS011;33653;52.302;8.134;2023-09-07T04:34:07;4.75;;;2.40;;
47894;SDS011;33653;52.302;8.134;2023-09-07T04:36:36;4.07;;;2.38;;
47894;SDS011;33653;52.302;8.134;2023-09-07T04:39:04;3.17;;;2.05;;
47894;SDS011;33653;52.302;8.134;2023-09-07T04:41:33;5.65;;;3.00;;
47894;SDS011;33653;52.302;8.134;2023-09-07T04:46:55;4.32;;;2.30;;
47894;SDS011;33653;52.302;8.134;2023-09-07T04:49:24;4.18;;;2.38;;
47894;SDS011;33653;52.302;8.134;2023-09-07T04:51:53;4.93;;;2.45;;
47894;SDS011;33653;52.302;8.134;2023-09-07T04:54:22;5.95;;;2.35;;
47894;SDS011;33653;52.302;8.134;2023-09-07T04:56:51;3.42;;;2.20;;
47894;SDS011;33653;52.302;8.134;2023-09-07T04:59:24;2.38;;;2.17;;
47894;SDS011;33653;52.302;8.134;2023-09-07T05:01:52;2.53;;;2.22;;
47894;SDS011;33653;52.302;8.134;2023-09-07T05:04:21;4.45;;;2.70;;
47894;SDS011;33653;52.302;8.134;2023-09-07T05:06:50;5.55;;;2.92;;
47894;SDS011;33653;52.302;8.134;2023-09-07T05:09:18;6.10;;;3.33;;
47894;SDS011;33653;52.302;8.134;2023-09-07T05:11:47;6.00;;;3.28;;
47894;SDS011;33653;52.302;8.134;2023-09-07T05:14:15;3.65;;;2.80;;
47894;SDS011;33653;52.302;8.134;2023-09-07T05:16:44;2.58;;;2.25;;
47894;SDS011;33653;52.302;8.134;2023-09-07T05:19:13;2.63;;;2.08;;
47894;SDS011;33653;52.302;8.134;2023-09-07T05:21:41;1.95;;;1.75;;
47894;SDS011;33653;52.302;8.134;2023-09-07T05:24:12;4.03;;;2.22;;
47894;SDS011;33653;52.302;8.134;2023-09-07T05:26:42;3.90;;;2.03;;
47894;SDS011;33653;52.302;8.134;2023-09-07T05:29:11;2.85;;;2.22;;
47894;SDS011;33653;52.302;8.134;2023-09-07T05:31:40;2.50;;;2.08;;
47894;SDS011;33653;52.302;8.134;2023-09-07T05:34:09;4.65;;;2.67;;
47894;SDS011;33653;52.302;8.134;2023-09-07T05:36:40;3.22;;;2.80;;
47894;SDS011;33653;52.302;8.134;2023-09-07T05:39:09;2.88;;;2.25;;
47894;SDS011;33653;52.302;8.134;2023-09-07T05:41:37;3.03;;;2.15;;
47894;SDS011;33653;52.302;8.134;2023-09-07T05:44:05;2.90;;;2.47;;
47894;SDS011;33653;52.302;8.134;2023-09-07T05:46:34;3.08;;;2.65;;
47894;SDS011;33653;52.302;8.134;2023-09-07T05:49:02;5.00;;;3.50;;
47894;SDS011;33653;52.302;8.134;2023-09-07T05:51:31;5.45;;;2.80;;
47894;SDS011;33653;52.302;8.134;2023-09-07T05:53:59;6.55;;;3.53;;
47894;SDS011;33653;52.302;8.134;2023-09-07T05:56:29;4.25;;;3.20;;
47894;SDS011;33653;52.302;8.134;2023-09-07T05:59:00;3.88;;;2.95;;
47894;SDS011;33653;52.302;8.134;2023-09-07T06:01:28;8.35;;;3.17;;
47894;SDS011;33653;52.302;8.134;2023-09-07T06:04:02;3.97;;;3.10;;
47894;SDS011;33653;52.302;8.134;2023-09-07T06:06:31;3.97;;;2.85;;
47894;SDS011;33653;52.302;8.134;2023-09-07T06:09:15;5.32;;;3.38;;
47894;SDS011;33653;52.302;8.134;2023-09-07T06:11:43;8.88;;;3.15;;
47894;SDS011;33653;52.302;8.134;2023-09-07T06:14:15;5.53;;;3.20;;
47894;SDS011;33653;52.302;8.134;2023-09-07T06:16:43;4.22;;;2.92;;
47894;SDS011;33653;52.302;8.134;2023-09-07T06:22:15;5.65;;;3.25;;
47894;SDS011;33653;52.302;8.134;2023-09-07T06:24:51;4.75;;;3.10;;
47894;SDS011;33653;52.302;8.134;2023-09-07T06:30:13;3.67;;;2.85;;
47894;SDS011;33653;52.302;8.134;2023-09-07T06:32:59;3.63;;;2.78;;
47894;SDS011;33653;52.302;8.134;2023-09-07T06:35:28;4.85;;;2.60;;
47894;SDS011;33653;52.302;8.134;2023-09-07T06:38:00;5.03;;;2.90;;
47894;SDS011;33653;52.302;8.134;2023-09-07T06:40:34;4.03;;;3.00;;
47894;SDS011;33653;52.302;8.134;2023-09-07T06:43:06;3.30;;;2.80;;
47894;SDS011;33653;52.302;8.134;2023-09-07T06:45:37;3.90;;;3.10;;
47894;SDS011;33653;52.302;8.134;2023-09-07T06:48:06;5.85;;;3.20;;
47894;SDS011;33653;52.302;8.134;2023-09-07T06:50:35;4.70;;;3.13;;
47894;SDS011;33653;52.302;8.134;2023-09-07T06:53:06;4.85;;;3.15;;
47894;SDS011;33653;52.302;8.134;2023-09-07T06:55:43;5.30;;;3.25;;
47894;SDS011;33653;52.302;8.134;2023-09-07T06:58:26;5.40;;;3.28;;
47894;SDS011;33653;52.302;8.134;2023-09-07T07:01:02;6.30;;;3.17;;
47894;SDS011;33653;52.302;8.134;2023-09-07T07:07:17;4.65;;;3.17;;
47894;SDS011;33653;52.302;8.134;2023-09-07T07:09:52;5.00;;;3.30;;
47894;SDS011;33653;52.302;8.134;2023-09-07T07:12:28;5.18;;;3.20;;
47894;SDS011;33653;52.302;8.134;2023-09-07T07:15:10;5.25;;;3.30;;
47894;SDS011;33653;52.302;8.134;2023-09-07T07:21:42;3.95;;;3.47;;
47894;SDS011;33653;52.302;8.134;2023-09-07T07:24:12;4.68;;;3.13;;
47894;SDS011;33653;52.302;8.134;2023-09-07T07:26:55;5.10;;;3.50;;
47894;SDS011;33653;52.302;8.134;2023-09-07T07:32:34;8.18;;;4.00;;
47894;SDS011;33653;52.302;8.134;2023-09-07T07:38:08;3.67;;;2.83;;
47894;SDS011;33653;52.302;8.134;2023-09-07T07:45:21;4.40;;;2.90;;
47894;SDS011;33653;52.302;8.134;2023-09-07T07:51:01;6.00;;;3.38;;
47894;SDS011;33653;52.302;8.134;2023-09-07T07:53:42;5.38;;;3.45;;
47894;SDS011;33653;52.302;8.134;2023-09-07T07:56:21;5.43;;;3.50;;
47894;SDS011;33653;52.302;8.134;2023-09-07T07:59:01;7.57;;;4.38;;
47894;SDS011;33653;52.302;8.134;2023-09-07T08:01:44;5.30;;;3.47;;
47894;SDS011;33653;52.302;8.134;2023-09-07T08:04:32;4.85;;;3.80;;
47894;SDS011;33653;52.302;8.134;2023-09-07T08:13:00;6.60;;;3.88;;
47894;SDS011;33653;52.302;8.134;2023-09-07T08:21:45;5.78;;;3.67;;
47894;SDS011;33653;52.302;8.134;2023-09-07T08:27:18;6.38;;;3.17;;
47894;SDS011;33653;52.302;8.134;2023-09-07T08:29:55;5.90;;;3.17;;
47894;SDS011;33653;52.302;8.134;2023-09-07T08:32:41;6.88;;;3.30;;
47894;SDS011;33653;52.302;8.134;2023-09-07T08:38:31;4.65;;;3.03;;
47894;SDS011;33653;52.302;8.134;2023-09-07T08:41:04;3.65;;;3.20;;
47894;SDS011;33653;52.302;8.134;2023-09-07T08:43:35;6.43;;;3.17;;
47894;SDS011;33653;52.302;8.134;2023-09-07T08:46:24;4.25;;;3.13;;
47894;SDS011;33653;52.302;8.134;2023-09-07T08:48:59;5.35;;;2.92;;
47894;SDS011;33653;52.302;8.134;2023-09-07T08:51:32;6.07;;;3.10;;
47894;SDS011;33653;52.302;8.134;2023-09-07T08:54:01;3.83;;;2.85;;
47894;SDS011;33653;52.302;8.134;2023-09-07T08:56:33;5.93;;;3.30;;
47894;SDS011;33653;52.302;8.134;2023-09-07T08:59:05;3.92;;;3.17;;
47894;SDS011;33653;52.302;8.134;2023-09-07T09:01:40;5.75;;;3.08;;
47894;SDS011;33653;52.302;8.134;2023-09-07T09:04:11;7.57;;;3.15;;
47894;SDS011;33653;52.302;8.134;2023-09-07T09:06:43;5.30;;;3.17;;
47894;SDS011;33653;52.302;8.134;2023-09-07T09:09:21;3.85;;;2.95;;
47894;SDS011;33653;52.302;8.134;2023-09-07T09:11:53;3.97;;;2.83;;
47894;SDS011;33653;52.302;8.134;2023-09-07T09:14:21;4.95;;;3.13;;
47894;SDS011;33653;52.302;8.134;2023-09-07T09:16:56;4.30;;;2.70;;
47894;SDS011;33653;52.302;8.134;2023-09-07T09:19:31;7.68;;;2.92;;
47894;SDS011;33653;52.302;8.134;2023-09-07T09:22:01;5.18;;;2.95;;
47894;SDS011;33653;52.302;8.134;2023-09-07T09:24:34;3.22;;;2.40;;
47894;SDS011;33653;52.302;8.134;2023-09-07T09:27:11;3.78;;;2.50;;
47894;SDS011;33653;52.302;8.134;2023-09-07T09:29:40;5.82;;;2.88;;
47894;SDS011;33653;52.302;8.134;2023-09-07T09:32:19;7.38;;;3.13;;
47894;SDS011;33653;52.302;8.134;2023-09-07T09:34:48;4.55;;;3.30;;
47894;SDS011;33653;52.302;8.134;2023-09-07T09:37:17;4.75;;;2.97;;
47894;SDS011;33653;52.302;8.134;2023-09-07T09:39:50;3.80;;;2.93;;
47894;SDS011;33653;52.302;8.134;2023-09-07T09:42:24;4.47;;;3.00;;
47894;SDS011;33653;52.302;8.134;2023-09-07T09:45:17;6.22;;;3.13;;
47894;SDS011;33653;52.302;8.134;2023-09-07T09:47:54;4.18;;;2.78;;
47894;SDS011;33653;52.302;8.134;2023-09-07T09:50:28;3.53;;;2.70;;
47894;SDS011;33653;52.302;8.134;2023-09-07T09:59:00;4.78;;;3.22;;
47894;SDS011;33653;52.302;8.134;2023-09-07T10:01:36;6.32;;;3.25;;
47894;SDS011;33653;52.302;8.134;2023-09-07T10:04:25;3.97;;;2.92;;
47894;SDS011;33653;52.302;8.134;2023-09-07T10:13:30;7.32;;;3.15;;
47894;SDS011;33653;52.302;8.134;2023-09-07T10:19:36;3.75;;;2.50;;
47894;SDS011;33653;52.302;8.134;2023-09-07T10:22:10;5.07;;;2.38;;
47894;SDS011;33653;52.302;8.134;2023-09-07T10:25:01;5.00;;;3.17;;
47894;SDS011;33653;52.302;8.134;2023-09-07T10:27:37;4.05;;;2.47;;
47894;SDS011;33653;52.302;8.134;2023-09-07T10:30:12;4.93;;;3.17;;
47894;SDS011;33653;52.302;8.134;2023-09-07T10:32:45;3.60;;;2.50;;
47894;SDS011;33653;52.302;8.134;2023-09-07T10:35:21;5.10;;;2.28;;
47894;SDS011;33653;52.302;8.134;2023-09-07T10:38:00;2.95;;;2.05;;
47894;SDS011;33653;52.302;8.134;2023-09-07T10:40:35;3.65;;;2.45;;
47894;SDS011;33653;52.302;8.134;2023-09-07T10:43:04;3.10;;;2.10;;
47894;SDS011;33653;52.302;8.134;2023-09-07T10:45:50;4.68;;;2.67;;
47894;SDS011;33653;52.302;8.134;2023-09-07T10:48:18;7.22;;;2.40;;
47894;SDS011;33653;52.302;8.134;2023-09-07T10:50:50;3.50;;;2.28;;
47894;SDS011;33653;52.302;8.134;2023-09-07T10:53:31;4.00;;;2.38;;
47894;SDS011;33653;52.302;8.134;2023-09-07T10:56:10;2.38;;;2.08;;
47894;SDS011;33653;52.302;8.134;2023-09-07T10:58:38;3.78;;;2.33;;
47894;SDS011;33653;52.302;8.134;2023-09-07T11:01:11;4.30;;;2.38;;
47894;SDS011;33653;52.302;8.134;2023-09-07T11:03:43;5.95;;;2.42;;
47894;SDS011;33653;52.302;8.134;2023-09-07T11:06:15;3.40;;;2.45;;
47894;SDS011;33653;52.302;8.134;2023-09-07T11:08:46;2.72;;;2.15;;
47894;SDS011;33653;52.302;8.134;2023-09-07T11:11:14;3.80;;;2.30;;
47894;SDS011;33653;52.302;8.134;2023-09-07T11:16:40;2.58;;;2.25;;
47894;SDS011;33653;52.302;8.134;2023-09-07T11:22:59;3.42;;;2.00;;
47894;SDS011;33653;52.302;8.134;2023-09-07T11:25:41;2.50;;;1.98;;
47894;SDS011;33653;52.302;8.134;2023-09-07T11:28:19;2.70;;;2.15;;
47894;SDS011;33653;52.302;8.134;2023-09-07T11:30:52;3.10;;;1.92;;
47894;SDS011;33653;52.302;8.134;2023-09-07T11:33:22;6.22;;;2.10;;
47894;SDS011;33653;52.302;8.134;2023-09-07T11:35:52;3.78;;;2.13;;
47894;SDS011;33653;52.302;8.134;2023-09-07T11:38:31;3.17;;;2.00;;
47894;SDS011;33653;52.302;8.134;2023-09-07T11:41:04;3.03;;;2.20;;
47894;SDS011;33653;52.302;8.134;2023-09-07T11:43:41;4.78;;;2.33;;
47894;SDS011;33653;52.302;8.134;2023-09-07T11:46:10;3.80;;;2.00;;
47894;SDS011;33653;52.302;8.134;2023-09-07T11:48:45;4.00;;;2.00;;
47894;SDS011;33653;52.302;8.134;2023-09-07T11:51:13;2.75;;;2.00;;
47894;SDS011;33653;52.302;8.134;2023-09-07T11:53:44;2.78;;;1.90;;
47894;SDS011;33653;52.302;8.134;2023-09-07T12:05:01;3.05;;;1.80;;
47894;SDS011;33653;52.302;8.134;2023-09-07T12:10:42;2.38;;;1.55;;
47894;SDS011;33653;52.302;8.134;2023-09-07T12:19:00;2.95;;;1.70;;
47894;SDS011;33653;52.302;8.134;2023-09-07T12:24:27;2.72;;;2.10;;
47894;SDS011;33653;52.302;8.134;2023-09-07T12:26:59;2.13;;;1.60;;
47894;SDS011;33653;52.302;8.134;2023-09-07T12:29:30;1.90;;;1.63;;
47894;SDS011;33653;52.302;8.134;2023-09-07T12:31:59;2.47;;;1.70;;
47894;SDS011;33653;52.302;8.134;2023-09-07T12:34:27;2.40;;;1.70;;
47894;SDS011;33653;52.302;8.134;2023-09-07T12:37:02;3.35;;;1.75;;
47894;SDS011;33653;52.302;8.134;2023-09-07T12:39:47;2.80;;;1.90;;
47894;SDS011;33653;52.302;8.134;2023-09-07T12:42:26;2.10;;;1.77;;
47894;SDS011;33653;52.302;8.134;2023-09-07T12:44:54;5.00;;;2.00;;
47894;SDS011;33653;52.302;8.134;2023-09-07T12:47:37;4.75;;;1.70;;
47894;SDS011;33653;52.302;8.134;2023-09-07T12:50:06;4.47;;;2.00;;
47894;SDS011;33653;52.302;8.134;2023-09-07T12:52:42;2.30;;;1.80;;
47894;SDS011;33653;52.302;8.134;2023-09-07T12:55:10;1.63;;;1.50;;
47894;SDS011;33653;52.302;8.134;2023-09-07T12:57:42;2.92;;;1.80;;
47894;SDS011;33653;52.302;8.134;2023-09-07T13:00:13;3.00;;;2.00;;
47894;SDS011;33653;52.302;8.134;2023-09-07T13:02:45;1.92;;;1.60;;
47894;SDS011;33653;52.302;8.134;2023-09-07T13:05:13;2.95;;;1.65;;
47894;SDS011;33653;52.302;8.134;2023-09-07T13:07:42;2.28;;;1.70;;
47894;SDS011;33653;52.302;8.134;2023-09-07T13:10:16;2.30;;;2.00;;
47894;SDS011;33653;52.302;8.134;2023-09-07T13:12:50;2.67;;;1.60;;
47894;SDS011;33653;52.302;8.134;2023-09-07T13:18:08;3.15;;;1.90;;
47894;SDS011;33653;52.302;8.134;2023-09-07T13:20:36;4.78;;;2.15;;
47894;SDS011;33653;52.302;8.134;2023-09-07T13:23:04;2.35;;;1.75;;
47894;SDS011;33653;52.302;8.134;2023-09-07T13:25:32;2.95;;;1.63;;
47894;SDS011;33653;52.302;8.134;2023-09-07T13:28:10;3.75;;;2.22;;
47894;SDS011;33653;52.302;8.134;2023-09-07T13:30:42;2.03;;;1.80;;
47894;SDS011;33653;52.302;8.134;2023-09-07T13:33:10;3.28;;;1.85;;
47894;SDS011;33653;52.302;8.134;2023-09-07T13:35:42;2.17;;;1.80;;
47894;SDS011;33653;52.302;8.134;2023-09-07T13:38:13;2.25;;;1.75;;
47894;SDS011;33653;52.302;8.134;2023-09-07T13:40:50;5.32;;;1.67;;
47894;SDS011;33653;52.302;8.134;2023-09-07T13:46:22;2.35;;;1.63;;
47894;SDS011;33653;52.302;8.134;2023-09-07T13:48:53;2.15;;;1.70;;
47894;SDS011;33653;52.302;8.134;2023-09-07T13:58:18;3.00;;;1.48;;
47894;SDS011;33653;52.302;8.134;2023-09-07T14:00:50;1.33;;;1.23;;
47894;SDS011;33653;52.302;8.134;2023-09-07T14:06:15;2.30;;;1.55;;
47894;SDS011;33653;52.302;8.134;2023-09-07T14:08:46;2.92;;;1.83;;
47894;SDS011;33653;52.302;8.134;2023-09-07T14:11:15;2.10;;;1.30;;
47894;SDS011;33653;52.302;8.134;2023-09-07T14:13:47;2.05;;;1.58;;
47894;SDS011;33653;52.302;8.134;2023-09-07T14:16:23;2.33;;;1.70;;
47894;SDS011;33653;52.302;8.134;2023-09-07T14:18:51;2.70;;;1.70;;
47894;SDS011;33653;52.302;8.134;2023-09-07T14:21:21;2.00;;;1.55;;
47894;SDS011;33653;52.302;8.134;2023-09-07T14:23:49;1.45;;;1.25;;
47894;SDS011;33653;52.302;8.134;2023-09-07T14:26:17;2.72;;;1.60;;
47894;SDS011;33653;52.302;8.134;2023-09-07T14:28:45;1.92;;;1.40;;
47894;SDS011;33653;52.302;8.134;2023-09-07T14:33:52;2.45;;;1.20;;
47894;SDS011;33653;52.302;8.134;2023-09-07T14:36:23;2.50;;;1.55;;
47894;SDS011;33653;52.302;8.134;2023-09-07T14:41:50;3.35;;;1.80;;
47894;SDS011;33653;52.302;8.134;2023-09-07T14:44:27;3.00;;;1.90;;
47894;SDS011;33653;52.302;8.134;2023-09-07T14:46:56;2.67;;;1.70;;
47894;SDS011;33653;52.302;8.134;2023-09-07T14:49:28;2.10;;;1.65;;
47894;SDS011;33653;52.302;8.134;2023-09-07T14:51:56;3.13;;;1.60;;
47894;SDS011;33653;52.302;8.134;2023-09-07T14:54:24;1.95;;;1.48;;
47894;SDS011;33653;52.302;8.134;2023-09-07T14:57:04;1.85;;;1.23;;
47894;SDS011;33653;52.302;8.134;2023-09-07T14:59:32;2.90;;;1.80;;
47894;SDS011;33653;52.302;8.134;2023-09-07T15:04:54;3.72;;;1.45;;
47894;SDS011;33653;52.302;8.134;2023-09-07T15:07:24;3.95;;;1.40;;
47894;SDS011;33653;52.302;8.134;2023-09-07T15:09:55;2.60;;;1.85;;
47894;SDS011;33653;52.302;8.134;2023-09-07T15:12:23;2.28;;;1.65;;
47894;SDS011;33653;52.302;8.134;2023-09-07T15:17:19;2.53;;;1.70;;
47894;SDS011;33653;52.302;8.134;2023-09-07T15:19:49;3.38;;;1.58;;
47894;SDS011;33653;52.302;8.134;2023-09-07T15:22:18;2.55;;;1.70;;
47894;SDS011;33653;52.302;8.134;2023-09-07T15:24:46;2.88;;;1.90;;
47894;SDS011;33653;52.302;8.134;2023-09-07T15:27:15;1.95;;;1.60;;
47894;SDS011;33653;52.302;8.134;2023-09-07T15:29:46;3.08;;;1.73;;
47894;SDS011;33653;52.302;8.134;2023-09-07T15:32:14;3.35;;;1.80;;
47894;SDS011;33653;52.302;8.134;2023-09-07T15:34:46;3.53;;;1.80;;
47894;SDS011;33653;52.302;8.134;2023-09-07T15:37:17;2.63;;;1.67;;
47894;SDS011;33653;52.302;8.134;2023-09-07T15:39:45;2.35;;;1.65;;
47894;SDS011;33653;52.302;8.134;2023-09-07T15:42:22;2.53;;;2.00;;
47894;SDS011;33653;52.302;8.134;2023-09-07T15:44:53;2.60;;;1.63;;
47894;SDS011;33653;52.302;8.134;2023-09-07T15:47:26;3.75;;;1.98;;
47894;SDS011;33653;52.302;8.134;2023-09-07T15:50:02;2.65;;;1.85;;
47894;SDS011;33653;52.302;8.134;2023-09-07T16:01:36;3.90;;;2.00;;
47894;SDS011;33653;52.302;8.134;2023-09-07T16:04:05;2.67;;;1.88;;
47894;SDS011;33653;52.302;8.134;2023-09-07T16:06:34;6.18;;;1.95;;
47894;SDS011;33653;52.302;8.134;2023-09-07T16:09:03;3.47;;;1.77;;
47894;SDS011;33653;52.302;8.134;2023-09-07T16:11:32;3.72;;;2.00;;
47894;SDS011;33653;52.302;8.134;2023-09-07T16:14:01;2.92;;;2.15;;
47894;SDS011;33653;52.302;8.134;2023-09-07T16:16:33;2.15;;;1.65;;
47894;SDS011;33653;52.302;8.134;2023-09-07T16:21:59;5.18;;;2.15;;
47894;SDS011;33653;52.302;8.134;2023-09-07T16:24:33;6.95;;;2.33;;
47894;SDS011;33653;52.302;8.134;2023-09-07T16:27:09;2.95;;;1.95;;
47894;SDS011;33653;52.302;8.134;2023-09-07T16:29:40;2.45;;;1.80;;
47894;SDS011;33653;52.302;8.134;2023-09-07T16:32:25;3.45;;;2.40;;
47894;SDS011;33653;52.302;8.134;2023-09-07T16:34:53;5.60;;;2.40;;
47894;SDS011;33653;52.302;8.134;2023-09-07T16:40:45;2.75;;;2.05;;
47894;SDS011;33653;52.302;8.134;2023-09-07T16:43:20;3.08;;;2.08;;
47894;SDS011;33653;52.302;8.134;2023-09-07T16:46:00;2.72;;;2.13;;
47894;SDS011;33653;52.302;8.134;2023-09-07T16:48:37;5.80;;;2.28;;
47894;SDS011;33653;52.302;8.134;2023-09-07T16:51:06;2.78;;;1.92;;
47894;SDS011;33653;52.302;8.134;2023-09-07T16:53:35;2.40;;;1.88;;
47894;SDS011;33653;52.302;8.134;2023-09-07T16:56:07;3.97;;;1.90;;
47894;SDS011;33653;52.302;8.134;2023-09-07T16:58:36;2.83;;;1.90;;
47894;SDS011;33653;52.302;8.134;2023-09-07T17:01:16;4.57;;;2.53;;
47894;SDS011;33653;52.302;8.134;2023-09-07T17:03:44;8.23;;;2.38;;
47894;SDS011;33653;52.302;8.134;2023-09-07T17:06:13;6.30;;;2.58;;
47894;SDS011;33653;52.302;8.134;2023-09-07T17:11:34;7.80;;;2.45;;
47894;SDS011;33653;52.302;8.134;2023-09-07T17:16:56;3.03;;;1.80;;
47894;SDS011;33653;52.302;8.134;2023-09-07T17:19:28;4.07;;;2.20;;
47894;SDS011;33653;52.302;8.134;2023-09-07T17:21:57;4.50;;;2.30;;
47894;SDS011;33653;52.302;8.134;2023-09-07T17:27:27;3.38;;;2.35;;
47894;SDS011;33653;52.302;8.134;2023-09-07T17:29:55;4.05;;;2.50;;
47894;SDS011;33653;52.302;8.134;2023-09-07T17:34:59;3.05;;;2.17;;
47894;SDS011;33653;52.302;8.134;2023-09-07T17:37:37;2.95;;;2.03;;
47894;SDS011;33653;52.302;8.134;2023-09-07T17:40:07;3.08;;;2.30;;
47894;SDS011;33653;52.302;8.134;2023-09-07T17:42:37;3.55;;;2.45;;
47894;SDS011;33653;52.302;8.134;2023-09-07T17:45:05;3.25;;;2.35;;
47894;SDS011;33653;52.302;8.134;2023-09-07T17:47:40;4.60;;;2.25;;
47894;SDS011;33653;52.302;8.134;2023-09-07T17:50:09;4.65;;;2.40;;
47894;SDS011;33653;52.302;8.134;2023-09-07T17:52:38;2.67;;;2.10;;
47894;SDS011;33653;52.302;8.134;2023-09-07T17:55:07;5.35;;;2.55;;
47894;SDS011;33653;52.302;8.134;2023-09-07T17:57:35;5.53;;;2.42;;
47894;SDS011;33653;52.302;8.134;2023-09-07T18:00:04;3.15;;;2.40;;
47894;SDS011;33653;52.302;8.134;2023-09-07T18:02:34;3.92;;;2.60;;
47894;SDS011;33653;52.302;8.134;2023-09-07T18:05:06;2.83;;;2.20;;
47894;SDS011;33653;52.302;8.134;2023-09-07T18:07:37;4.80;;;2.85;;